createdAt,value
2018-05-24T00:02:38.530Z,18.70
2018-05-24T00:05:40.968Z,18.60
2018-05-24T00:08:43.418Z,18.60
2018-05-24T00:11:45.906Z,18.60
2018-05-24T00:14:48.365Z,18.60
2018-05-24T00:17:50.816Z,18.50
2018-05-24T00:20:54.050Z,18.50
2018-05-24T00:23:56.503Z,18.50
2018-05-24T00:26:58.969Z,18.50
2018-05-24T00:30:01.435Z,18.50
2018-05-24T00:33:03.883Z,18.50
2018-05-24T00:36:06.330Z,18.50
2018-05-24T00:39:08.790Z,18.50
2018-05-24T00:42:11.249Z,18.50
2018-05-24T00:45:14.476Z,18.40
2018-05-24T00:48:16.944Z,18.40
2018-05-24T00:51:19.386Z,18.30
2018-05-24T00:54:22.601Z,18.30
2018-05-24T00:57:25.062Z,18.20
2018-05-24T01:00:28.309Z,18.20
2018-05-24T01:03:30.769Z,18.20
2018-05-24T01:06:33.217Z,18.20
2018-05-24T01:09:35.657Z,18.10
2018-05-24T01:12:38.117Z,18.20
2018-05-24T01:15:40.611Z,18.10
2018-05-24T01:18:43.027Z,18.10
2018-05-24T01:24:54.493Z,18.10
2018-05-24T01:27:56.951Z,18.10
2018-05-24T01:30:59.406Z,18.10
2018-05-24T01:34:01.859Z,18.00
2018-05-24T01:37:16.221Z,18.00
2018-05-24T01:40:19.420Z,17.90
2018-05-24T01:43:21.881Z,17.90
2018-05-24T01:46:25.106Z,18.00
2018-05-24T01:49:27.549Z,17.90
2018-05-24T01:52:30.773Z,17.90
2018-05-24T01:55:33.236Z,17.90
2018-05-24T01:58:35.707Z,17.90
2018-05-24T02:01:38.161Z,17.90
2018-05-24T02:04:41.386Z,17.80
2018-05-24T02:07:43.862Z,17.80
2018-05-24T02:10:46.317Z,17.80
2018-05-24T02:13:49.555Z,17.70
2018-05-24T02:16:52.014Z,17.70
2018-05-24T02:19:54.463Z,17.70
2018-05-24T02:22:57.681Z,17.70
2018-05-24T02:26:00.162Z,17.70
2018-05-24T02:29:02.657Z,17.70
2018-05-24T02:32:05.849Z,17.70
2018-05-24T02:35:08.309Z,17.70
2018-05-24T02:38:10.776Z,17.70
2018-05-24T02:41:13.236Z,17.60
2018-05-24T02:44:16.453Z,17.60
2018-05-24T02:47:19.439Z,17.60
2018-05-24T02:50:21.882Z,17.60
2018-05-24T02:53:24.331Z,17.50
2018-05-24T02:56:26.797Z,17.50
2018-05-24T02:59:29.254Z,17.50
2018-05-24T03:02:31.726Z,17.40
2018-05-24T03:05:34.931Z,17.40
2018-05-24T03:08:37.406Z,17.40
2018-05-24T03:11:39.882Z,17.40
2018-05-24T03:14:42.322Z,17.40
2018-05-24T03:17:44.778Z,17.40
2018-05-24T03:20:47.223Z,17.30
2018-05-24T03:23:49.681Z,17.30
2018-05-24T03:26:52.142Z,17.20
2018-05-24T03:29:55.349Z,17.20
2018-05-24T03:32:57.802Z,17.20
2018-05-24T03:36:01.017Z,17.20
2018-05-24T03:39:03.465Z,17.20
2018-05-24T03:42:05.934Z,17.20
2018-05-24T03:45:08.386Z,17.20
2018-05-24T03:48:10.862Z,17.20
2018-05-24T03:51:13.325Z,17.20
2018-05-24T03:54:15.789Z,17.20
2018-05-24T03:57:18.253Z,17.20
2018-05-24T04:00:33.390Z,17.20
2018-05-24T04:03:47.645Z,17.20
2018-05-24T04:06:50.098Z,17.30
2018-05-24T04:09:52.549Z,17.30
2018-05-24T04:12:55.023Z,17.30
2018-05-24T04:15:57.462Z,17.30
2018-05-24T04:19:00.685Z,17.30
2018-05-24T04:22:03.138Z,17.20
2018-05-24T04:25:06.355Z,17.20
2018-05-24T04:28:08.813Z,17.20
2018-05-24T04:31:12.026Z,17.40
2018-05-24T04:34:14.489Z,17.40
2018-05-24T04:37:17.718Z,17.30
2018-05-24T04:40:20.174Z,17.30
2018-05-24T04:43:22.654Z,17.30
2018-05-24T04:46:25.160Z,17.40
2018-05-24T04:49:27.613Z,17.30
2018-05-24T04:52:30.118Z,17.30
2018-05-24T04:55:33.317Z,17.20
2018-05-24T04:58:35.785Z,17.20
2018-05-24T05:01:38.248Z,17.10
2018-05-24T05:08:26.419Z,17.00
2018-05-24T05:11:28.873Z,16.90
2018-05-24T05:14:31.355Z,16.90
2018-05-24T05:17:34.178Z,17.10
2018-05-24T05:20:36.669Z,17.20
2018-05-24T05:23:39.131Z,17.30
2018-05-24T05:26:41.596Z,17.20
2018-05-24T05:29:44.055Z,17.20
2018-05-24T05:32:46.534Z,17.20
2018-05-24T05:35:48.973Z,17.20
2018-05-24T05:38:52.213Z,17.20
2018-05-24T05:41:54.649Z,17.20
2018-05-24T05:44:57.890Z,17.20
2018-05-24T05:48:00.364Z,17.20
2018-05-24T05:51:02.823Z,17.20
2018-05-24T05:54:05.278Z,17.30
2018-05-24T05:57:08.487Z,17.30
2018-05-24T06:00:10.998Z,17.20
2018-05-24T06:03:13.481Z,17.20
2018-05-24T06:06:15.987Z,17.20
2018-05-24T06:09:18.450Z,17.10
2018-05-24T06:12:20.899Z,17.10
2018-05-24T06:15:23.361Z,17.10
2018-05-24T06:18:25.808Z,17.10
2018-05-24T06:21:29.060Z,17.20
2018-05-24T06:24:31.497Z,17.20
2018-05-24T06:27:33.954Z,17.30
2018-05-24T06:30:37.185Z,17.50
2018-05-24T06:33:39.645Z,17.50
2018-05-24T06:36:42.089Z,17.70
2018-05-24T06:39:44.562Z,17.70
2018-05-24T06:42:47.011Z,17.60
2018-05-24T06:45:49.468Z,17.50
2018-05-24T06:48:51.930Z,17.40
2018-05-24T06:51:54.390Z,17.40
2018-05-24T06:54:57.621Z,17.80
2018-05-24T06:58:00.071Z,17.80
2018-05-24T07:01:02.528Z,17.90
2018-05-24T07:04:05.762Z,18.10
2018-05-24T07:07:08.225Z,18.10
2018-05-24T07:10:10.686Z,18.50
2018-05-24T07:13:13.922Z,20.00
2018-05-24T07:16:16.382Z,20.00
2018-05-24T07:19:18.850Z,20.70
2018-05-24T07:22:21.314Z,21.10
2018-05-24T07:25:24.533Z,21.90
2018-05-24T07:28:26.998Z,21.80
2018-05-24T07:31:29.477Z,22.40
2018-05-24T07:34:32.707Z,22.70
2018-05-24T07:37:35.161Z,22.60
2018-05-24T07:40:37.630Z,23.00
2018-05-24T07:43:40.075Z,23.20
2018-05-24T07:46:43.301Z,23.30
2018-05-24T07:49:45.784Z,23.30
2018-05-24T07:52:48.238Z,22.90
2018-05-24T07:55:50.827Z,22.70
2018-05-24T07:58:54.038Z,21.60
2018-05-24T08:01:56.493Z,21.60
2018-05-24T08:04:58.948Z,21.40
2018-05-24T08:08:02.181Z,21.10
2018-05-24T08:11:04.634Z,21.10
2018-05-24T08:14:07.842Z,20.40
2018-05-24T08:17:10.305Z,20.40
2018-05-24T08:20:13.537Z,20.10
2018-05-24T08:23:16.006Z,20.00
2018-05-24T08:26:18.450Z,19.90
2018-05-24T08:29:20.889Z,19.70
2018-05-24T08:32:23.359Z,19.70
2018-05-24T08:35:25.821Z,19.50
2018-05-24T08:38:28.284Z,19.50
2018-05-24T08:41:30.736Z,19.40
2018-05-24T08:44:33.198Z,19.30
2018-05-24T08:47:36.422Z,19.10
2018-05-24T08:50:38.886Z,19.10
2018-05-24T08:53:41.338Z,19.00
2018-05-24T08:56:43.807Z,19.00
2018-05-24T08:59:46.264Z,19.00
2018-05-24T09:02:48.720Z,19.00
2018-05-24T09:05:51.177Z,19.10
2018-05-24T09:08:53.647Z,19.00
2018-05-24T09:11:57.407Z,18.90
2018-05-24T09:14:59.870Z,18.90
2018-05-24T09:18:02.329Z,18.80
2018-05-24T09:21:04.810Z,18.70
2018-05-24T09:24:07.275Z,18.50
2018-05-24T09:27:09.726Z,18.40
2018-05-24T09:30:12.193Z,18.30
2018-05-24T09:33:15.418Z,17.90
2018-05-24T09:36:17.970Z,17.90
2018-05-24T09:39:20.330Z,17.70
2018-05-24T09:42:26.717Z,17.50
2018-05-24T09:45:29.182Z,17.40
2018-05-24T09:48:31.652Z,17.30
2018-05-24T09:51:34.105Z,17.20
2018-05-24T09:54:36.566Z,17.00
2018-05-24T10:00:48.006Z,16.70
2018-05-24T10:03:50.470Z,16.60
2018-05-24T10:06:52.946Z,16.40
2018-05-24T10:09:55.407Z,16.20
2018-05-24T10:12:57.873Z,16.10
2018-05-24T10:16:00.348Z,16.00
2018-05-24T10:19:02.797Z,15.90
2018-05-24T10:22:06.034Z,15.80
2018-05-24T10:25:08.483Z,15.90
2018-05-24T10:28:10.963Z,15.90
2018-05-24T10:31:13.437Z,15.90
2018-05-24T10:34:15.880Z,15.80
2018-05-24T10:37:26.225Z,15.90
2018-05-24T10:40:28.792Z,15.90
2018-05-24T10:43:31.442Z,15.80
2018-05-24T10:46:34.106Z,15.90
2018-05-24T10:49:36.671Z,15.70
2018-05-24T10:52:42.733Z,15.60
2018-05-24T10:55:46.001Z,15.50
2018-05-24T10:58:48.476Z,15.50
2018-05-24T11:01:50.933Z,15.50
2018-05-24T11:04:53.640Z,15.40
2018-05-24T11:07:56.097Z,15.30
2018-05-24T11:10:58.553Z,15.20
2018-05-24T11:14:01.026Z,15.20
2018-05-24T11:17:03.481Z,15.10
2018-05-24T11:20:06.756Z,15.10
2018-05-24T11:23:09.275Z,15.10
2018-05-24T11:26:11.745Z,15.10
2018-05-24T11:29:14.218Z,15.00
2018-05-24T11:32:16.686Z,15.00
2018-05-24T11:35:20.201Z,15.00
2018-05-24T11:38:22.827Z,15.00
2018-05-24T11:41:25.352Z,15.00
2018-05-24T11:44:28.750Z,15.20
2018-05-24T11:47:31.543Z,15.30
2018-05-24T11:50:34.025Z,15.50
2018-05-24T11:53:36.509Z,15.60
2018-05-24T11:56:38.974Z,15.90
2018-05-24T11:59:41.478Z,15.90
2018-05-24T12:02:43.941Z,16.10
2018-05-24T12:05:46.422Z,16.20
2018-05-24T12:08:48.895Z,16.40
2018-05-24T12:11:51.386Z,16.50
2018-05-24T12:14:53.842Z,16.60
2018-05-24T12:17:56.323Z,16.80
2018-05-24T12:20:58.781Z,17.10
2018-05-24T12:24:01.250Z,17.30
2018-05-24T12:27:04.482Z,17.50
2018-05-24T12:30:06.937Z,17.50
2018-05-24T12:33:09.401Z,17.60
2018-05-24T12:36:11.850Z,17.70
2018-05-24T12:39:15.822Z,17.60
2018-05-24T12:42:18.285Z,17.60
2018-05-24T12:45:20.734Z,17.70
2018-05-24T12:48:23.981Z,17.80
2018-05-24T12:51:26.422Z,17.80
2018-05-24T12:54:28.897Z,17.90
2018-05-24T12:57:31.371Z,17.90
2018-05-24T13:00:34.590Z,17.80
2018-05-24T13:03:37.059Z,17.80
2018-05-24T13:06:39.518Z,18.00
2018-05-24T13:09:42.741Z,18.10
2018-05-24T13:12:45.209Z,18.10
2018-05-24T13:15:47.667Z,18.20
2018-05-24T13:18:50.126Z,18.40
2018-05-24T13:21:53.354Z,18.40
2018-05-24T13:24:55.842Z,18.40
2018-05-24T13:27:58.305Z,18.50
2018-05-24T13:31:00.769Z,18.60
2018-05-24T13:34:03.237Z,18.70
2018-05-24T13:37:05.700Z,18.80
2018-05-24T13:40:08.178Z,18.80
2018-05-24T13:43:10.653Z,18.80
2018-05-24T13:46:13.106Z,18.90
2018-05-24T13:49:15.566Z,19.00
2018-05-24T13:52:18.026Z,19.10
2018-05-24T13:55:20.505Z,19.10
2018-05-24T13:58:22.974Z,19.00
2018-05-24T14:01:25.428Z,18.90
2018-05-24T14:04:28.670Z,18.60
2018-05-24T14:07:31.125Z,18.60
2018-05-24T14:10:33.599Z,18.60
2018-05-24T14:13:36.063Z,18.60
2018-05-24T14:16:38.513Z,18.60
2018-05-24T14:19:40.980Z,18.70
2018-05-24T14:22:43.440Z,18.70
2018-05-24T14:25:45.915Z,18.80
2018-05-24T14:28:48.389Z,18.90
2018-05-24T14:31:50.865Z,18.90
2018-05-24T14:34:53.366Z,19.00
2018-05-24T14:37:55.835Z,19.10
2018-05-24T14:40:58.296Z,19.10
2018-05-24T14:44:00.761Z,19.10
2018-05-24T14:47:03.228Z,19.00
2018-05-24T14:50:05.712Z,19.00
2018-05-24T14:53:08.162Z,19.00
2018-05-24T14:56:10.629Z,19.10
2018-05-24T14:59:13.861Z,19.20
2018-05-24T15:02:16.319Z,19.20
2018-05-24T15:05:18.795Z,19.00
2018-05-24T15:08:21.284Z,18.90
2018-05-24T15:11:23.742Z,18.80
2018-05-24T15:14:26.205Z,18.80
2018-05-24T15:17:29.422Z,18.80
2018-05-24T15:20:31.885Z,18.80
2018-05-24T15:23:34.354Z,18.80
2018-05-24T15:26:37.570Z,18.90
2018-05-24T15:29:40.040Z,18.90
2018-05-24T15:32:42.522Z,18.90
2018-05-24T15:35:45.744Z,18.90
2018-05-24T15:38:48.197Z,18.90
2018-05-24T15:41:50.662Z,18.70
2018-05-24T15:44:53.126Z,18.80
2018-05-24T15:47:55.577Z,18.90
2018-05-24T15:51:00.063Z,18.90
2018-05-24T15:54:02.541Z,18.90
2018-05-24T15:57:05.001Z,18.80
2018-05-24T16:00:07.549Z,18.80
2018-05-24T16:03:11.073Z,18.80
2018-05-24T16:06:13.734Z,18.90
2018-05-24T16:09:17.090Z,19.10
2018-05-24T16:12:29.701Z,19.10
2018-05-24T16:15:32.384Z,19.20
2018-05-24T16:18:34.850Z,19.20
2018-05-24T16:21:37.313Z,19.20
2018-05-24T16:24:39.793Z,19.20
2018-05-24T16:27:42.251Z,19.30
2018-05-24T16:30:45.485Z,19.30
2018-05-24T16:33:47.939Z,19.30
2018-05-24T16:36:50.410Z,19.30
2018-05-24T16:39:52.874Z,19.20
2018-05-24T16:42:56.094Z,19.10
2018-05-24T16:45:58.574Z,19.10
2018-05-24T16:49:01.039Z,19.00
2018-05-24T16:52:03.526Z,18.90
2018-05-24T16:55:06.003Z,18.90
2018-05-24T16:58:08.471Z,18.80
2018-05-24T17:01:10.924Z,18.70
2018-05-24T17:04:13.386Z,18.60
2018-05-24T17:07:15.839Z,18.50
2018-05-24T17:10:18.302Z,18.50
2018-05-24T17:13:21.522Z,18.40
2018-05-24T17:19:57.540Z,18.20
2018-05-24T17:23:00.006Z,18.20
2018-05-24T17:26:02.457Z,18.10
2018-05-24T17:29:04.914Z,18.10
2018-05-24T17:32:07.454Z,18.00
2018-05-24T17:35:09.921Z,17.90
2018-05-24T17:38:16.707Z,17.80
2018-05-24T17:41:19.929Z,17.70
2018-05-24T17:44:22.383Z,17.70
2018-05-24T17:47:24.841Z,17.80
2018-05-24T17:50:28.061Z,17.70
2018-05-24T17:53:30.537Z,17.70
2018-05-24T17:56:33.742Z,17.60
2018-05-24T17:59:36.207Z,17.60
2018-05-24T18:02:38.672Z,17.60
2018-05-24T18:05:41.149Z,17.60
2018-05-24T18:08:43.610Z,17.50
2018-05-24T18:11:46.838Z,17.50
2018-05-24T18:14:49.349Z,17.40
2018-05-24T18:17:51.770Z,17.40
2018-05-24T18:20:54.994Z,17.30
2018-05-24T18:23:57.458Z,17.30
2018-05-24T18:26:59.940Z,17.20
2018-05-24T18:30:11.051Z,17.20
2018-05-24T18:33:13.538Z,17.20
2018-05-24T18:36:16.006Z,17.20
2018-05-24T18:39:18.459Z,17.10
2018-05-24T18:42:20.930Z,17.10
2018-05-24T18:45:29.301Z,16.90
2018-05-24T18:48:31.765Z,16.90
2018-05-24T18:51:34.233Z,16.80
2018-05-24T18:54:36.685Z,16.80
2018-05-24T18:57:39.174Z,16.80
2018-05-24T19:00:41.656Z,16.80
2018-05-24T19:03:44.112Z,16.80
2018-05-24T19:06:46.594Z,16.80
2018-05-24T19:09:49.053Z,16.80
2018-05-24T19:12:51.533Z,16.80
2018-05-24T19:15:54.014Z,16.80
2018-05-24T19:18:56.470Z,16.90
2018-05-24T19:21:59.100Z,16.90
2018-05-24T19:25:01.679Z,16.90
2018-05-24T19:28:04.335Z,16.90
2018-05-24T19:31:06.838Z,16.70
2018-05-24T19:34:09.298Z,16.70
2018-05-24T19:37:11.778Z,16.70
2018-05-24T19:40:15.030Z,16.60
2018-05-24T19:43:17.503Z,16.70
2018-05-24T19:46:20.745Z,16.60
2018-05-24T19:49:23.202Z,16.60
2018-05-24T19:52:25.661Z,16.60
2018-05-24T19:55:28.118Z,16.60
2018-05-24T19:58:31.346Z,16.60
2018-05-24T20:01:33.805Z,16.60
2018-05-24T20:04:37.042Z,16.60
2018-05-24T20:07:39.511Z,16.60
2018-05-24T20:10:41.963Z,16.70
2018-05-24T20:13:44.452Z,16.70
2018-05-24T20:16:46.925Z,16.60
2018-05-24T20:19:49.361Z,16.60
2018-05-24T20:22:51.855Z,16.60
2018-05-24T20:25:54.293Z,16.60
2018-05-24T20:28:56.761Z,16.50
2018-05-24T20:31:59.221Z,16.60
2018-05-24T20:35:01.682Z,16.60
2018-05-24T20:38:04.162Z,16.50
2018-05-24T20:41:06.633Z,16.50
2018-05-24T20:44:09.099Z,16.40
2018-05-24T20:47:11.561Z,16.50
2018-05-24T20:50:14.810Z,16.50
2018-05-24T20:53:17.265Z,16.40
2018-05-24T20:56:19.765Z,16.40
2018-05-24T20:59:22.958Z,16.40
2018-05-24T21:06:00.149Z,16.40
2018-05-24T21:09:02.622Z,16.30
2018-05-24T21:12:05.105Z,16.30
2018-05-24T21:15:07.566Z,16.30
2018-05-24T21:18:10.047Z,16.30
2018-05-24T21:21:13.290Z,16.30
2018-05-24T21:24:15.782Z,16.30
2018-05-24T21:27:18.249Z,16.30
2018-05-24T21:30:20.740Z,16.30
2018-05-24T21:33:23.202Z,16.30
2018-05-24T21:36:25.662Z,16.30
2018-05-24T21:39:28.130Z,16.30
2018-05-24T21:42:30.617Z,16.40
2018-05-24T21:45:33.108Z,16.40
2018-05-24T21:48:35.553Z,16.30
2018-05-24T21:51:38.010Z,16.40
2018-05-24T21:54:41.229Z,16.30
2018-05-24T21:57:43.689Z,16.30
2018-05-24T22:00:50.998Z,16.30
2018-05-24T22:03:53.457Z,16.30
2018-05-24T22:06:55.914Z,16.30
2018-05-24T22:09:59.159Z,16.20
2018-05-24T22:13:01.618Z,16.20
2018-05-24T22:16:04.082Z,16.20
2018-05-24T22:19:06.542Z,16.20
2018-05-24T22:22:09.761Z,16.20
2018-05-24T22:25:12.216Z,16.10
2018-05-24T22:28:14.681Z,16.20
2018-05-24T22:31:17.897Z,16.20
2018-05-24T22:34:20.372Z,16.10
2018-05-24T22:37:22.826Z,16.20
2018-05-24T22:40:26.057Z,16.10
2018-05-24T22:43:28.529Z,16.10
2018-05-24T22:46:30.978Z,16.10
2018-05-24T22:49:34.201Z,16.20
2018-05-24T22:52:36.653Z,16.10
2018-05-24T22:55:39.881Z,16.10
2018-05-24T22:58:42.340Z,16.10
2018-05-24T23:01:44.799Z,16.10
2018-05-24T23:04:48.035Z,16.10
2018-05-24T23:07:50.487Z,16.10
2018-05-24T23:10:52.950Z,16.20
2018-05-24T23:13:56.186Z,16.20
2018-05-24T23:16:58.631Z,16.20
2018-05-24T23:20:01.098Z,16.20
2018-05-24T23:23:04.338Z,16.20
2018-05-24T23:26:06.794Z,16.20
2018-05-24T23:29:09.263Z,16.20
2018-05-24T23:32:11.732Z,16.10
2018-05-24T23:35:14.209Z,16.10
2018-05-24T23:38:16.658Z,16.00
2018-05-24T23:41:19.899Z,16.00
2018-05-24T23:44:22.365Z,15.90
2018-05-24T23:47:24.819Z,15.90
2018-05-24T23:50:27.268Z,15.80
2018-05-24T23:53:29.738Z,15.80
2018-05-24T23:56:32.209Z,15.90
2018-05-24T23:59:34.690Z,15.80
